Time;durP1;ratioP1;P1;durP2;ratioP2;P2;SDS_P1;SDS_P2;PMS_P1;PMS_P2;Temp;Humidity;BMP_temperature;BMP_pressure;BME280_temperature;BME280_humidity;BME280_pressure;Samples;Min_cycle;Max_cycle;Signal;HPM_P1;HPM_P2
2023/04/08 00:01:56;;;;;;;0.35;0.20;;;;;;;3.63;64.71;103057.78;5041168;28;20204;-75
2023/04/08 00:04:24;;;;;;;0.63;0.20;;;;;;;3.63;64.49;103062.94;5038723;28;20057;-76
2023/04/08 00:06:51;;;;;;;0.82;0.30;;;;;;;3.63;64.57;103060.34;5033286;28;20056;-76
2023/04/08 00:09:18;;;;;;;0.60;0.35;;;;;;;3.64;64.46;103059.53;5040507;28;20489;-77
2023/04/08 00:11:45;;;;;;;1.90;0.30;;;;;;;3.64;64.49;103064.69;5032190;28;20054;-77
2023/04/08 00:14:11;;;;;;;0.65;0.30;;;;;;;3.64;64.41;103064.69;5045262;28;20095;-76
2023/04/08 00:16:38;;;;;;;0.28;0.20;;;;;;;3.65;64.12;103069.06;5033730;28;20056;-76
2023/04/08 00:19:06;;;;;;;1.02;0.30;;;;;;;3.64;64.57;103067.28;5026865;28;20497;-76
2023/04/08 00:21:34;;;;;;;1.10;0.40;;;;;;;3.66;64.30;103064.78;5029553;28;20038;-76
2023/04/08 00:24:01;;;;;;;0.80;0.30;;;;;;;3.62;64.00;103063.75;5027991;28;20052;-76
2023/04/08 00:26:28;;;;;;;0.30;0.20;;;;;;;3.65;63.72;103074.25;5037032;28;20418;-77
2023/04/08 00:28:55;;;;;;;0.50;0.30;;;;;;;3.65;63.83;103066.50;5033553;28;20054;-76
2023/04/08 00:31:21;;;;;;;0.35;0.30;;;;;;;3.63;64.30;103072.41;5039781;28;20049;-77
2023/04/08 00:33:48;;;;;;;0.30;0.20;;;;;;;3.61;63.94;103069.72;5028071;28;20049;-76
2023/04/08 00:36:15;;;;;;;0.60;0.30;;;;;;;3.57;63.96;103062.66;5032426;28;20056;-76
2023/04/08 00:38:43;;;;;;;0.40;0.20;;;;;;;3.62;63.74;103071.53;5030926;28;21439;-77
2023/04/08 00:41:10;;;;;;;0.85;0.30;;;;;;;3.62;64.07;103068.06;5035354;28;20047;-77
2023/04/08 00:43:37;;;;;;;0.38;0.30;;;;;;;3.63;64.05;103073.28;5045696;28;20063;-76
2023/04/08 00:46:05;;;;;;;1.00;0.30;;;;;;;3.62;63.75;103066.34;5042794;28;20050;-76
2023/04/08 00:48:32;;;;;;;1.35;0.28;;;;;;;3.64;64.14;103068.97;5041539;28;20199;-76
2023/04/08 00:50:59;;;;;;;1.15;0.38;;;;;;;3.63;63.95;103078.44;5040296;28;20053;-76
2023/04/08 00:53:26;;;;;;;4.18;0.28;;;;;;;3.64;63.48;103071.56;5038765;28;20065;-77
2023/04/08 00:55:54;;;;;;;2.15;0.30;;;;;;;3.64;63.64;103068.97;5035882;28;20037;-76
2023/04/08 00:58:21;;;;;;;0.60;0.30;;;;;;;3.64;63.28;103066.41;5037832;28;20053;-76
2023/04/08 01:00:54;;;;;;;0.43;0.20;;;;;;;3.61;63.47;103061.97;5028585;28;20177;-76
2023/04/08 01:03:34;;;;;;;0.88;0.30;;;;;;;3.65;64.05;103070.78;5039808;28;20164;-75
2023/04/08 01:06:10;;;;;;;0.60;0.20;;;;;;;3.66;64.10;103070.84;5033063;28;20049;-75
2023/04/08 01:08:40;;;;;;;0.70;0.20;;;;;;;3.67;63.91;103070.03;5040390;28;20048;-76
2023/04/08 01:11:11;;;;;;;1.77;0.30;;;;;;;3.68;63.59;103071.81;5041951;28;20096;-76
2023/04/08 01:13:42;;;;;;;2.13;0.20;;;;;;;3.68;63.88;103071.81;5035528;28;21170;-76
2023/04/08 01:16:11;;;;;;;0.80;0.20;;;;;;;3.69;63.84;103070.97;5039293;28;20103;-75
2023/04/08 01:18:39;;;;;;;1.13;0.28;;;;;;;3.68;63.04;103066.63;5045501;28;20075;-77
2023/04/08 01:21:07;;;;;;;1.45;0.25;;;;;;;3.69;63.40;103076.13;5037675;28;20067;-76
2023/04/08 01:23:41;;;;;;;0.60;0.30;;;;;;;3.68;63.46;103071.81;5040516;28;20079;-76
2023/04/08 01:26:11;;;;;;;0.43;0.25;;;;;;;3.67;63.21;103061.38;5040967;28;20049;-76
2023/04/08 01:28:42;;;;;;;0.57;0.30;;;;;;;3.66;63.37;103068.25;5044319;28;20134;-76
2023/04/08 01:31:09;;;;;;;0.30;0.20;;;;;;;3.65;63.31;103075.94;5042693;28;20524;-76
2023/04/08 01:33:37;;;;;;;0.82;0.55;;;;;;;3.70;63.57;103077.03;5036856;28;20045;-76
2023/04/08 01:36:06;;;;;;;0.60;0.28;;;;;;;3.70;63.12;103080.53;5041566;28;20050;-76
2023/04/08 01:38:34;;;;;;;0.43;0.20;;;;;;;3.71;63.25;103069.34;5043889;28;20057;-76
2023/04/08 01:41:01;;;;;;;0.63;0.47;;;;;;;3.72;62.96;103073.69;5042694;28;20053;-76
2023/04/08 01:43:31;;;;;;;0.30;0.20;;;;;;;3.70;63.28;103070.19;5043032;28;20046;-76
2023/04/08 01:45:59;;;;;;;3.97;1.05;;;;;;;3.70;62.46;103070.19;5040662;28;20061;-76
2023/04/08 01:48:27;;;;;;;0.73;0.45;;;;;;;3.70;62.74;103071.84;5036881;28;20512;-76
2023/04/08 01:50:55;;;;;;;1.15;0.30;;;;;;;3.69;62.12;103070.97;5039747;28;20072;-76
2023/04/08 01:53:23;;;;;;;0.30;0.25;;;;;;;3.66;62.79;103069.94;5038670;28;20041;-76
2023/04/08 01:55:57;;;;;;;0.43;0.28;;;;;;;3.68;62.49;103070.91;5038554;28;20041;-77
2023/04/08 01:58:28;;;;;;;0.77;0.45;;;;;;;3.67;62.22;103080.38;5036736;28;20038;-76
2023/04/08 02:00:57;;;;;;;0.38;0.20;;;;;;;3.68;62.73;103078.66;5037969;28;20063;-77
2023/04/08 02:03:28;;;;;;;0.70;0.30;;;;;;;3.68;62.59;103082.13;5040870;28;20052;-76
2023/04/08 02:05:55;;;;;;;0.35;0.20;;;;;;;3.68;62.35;103087.31;5039271;28;20052;-77
2023/04/08 02:08:21;;;;;;;0.40;0.30;;;;;;;3.69;62.31;103085.59;5041401;28;20048;-76
2023/04/08 02:10:48;;;;;;;0.95;0.32;;;;;;;3.69;62.38;103078.72;5032645;28;20434;-76
2023/04/08 02:13:15;;;;;;;1.60;0.30;;;;;;;3.70;62.54;103083.09;5040899;28;20051;-76
2023/04/08 02:15:48;;;;;;;1.23;0.30;;;;;;;3.70;61.98;103085.69;5038062;28;20561;-75
2023/04/08 02:18:23;;;;;;;0.43;0.20;;;;;;;3.70;62.06;103079.59;5041005;28;20168;-76
2023/04/08 02:20:57;;;;;;;0.70;0.30;;;;;;;3.72;62.40;103083.16;5042547;28;20055;-82
2023/04/08 02:23:28;;;;;;;2.95;1.48;;;;;;;3.72;62.42;103078.88;5034706;28;20417;-84
2023/04/08 02:25:56;;;;;;;0.65;0.30;;;;;;;3.72;61.90;103071.13;5039681;28;20053;-83
2023/04/08 02:28:26;;;;;;;0.57;0.30;;;;;;;3.74;61.97;103082.41;5044089;28;20038;-83
2023/04/08 02:30:54;;;;;;;2.15;0.20;;;;;;;3.69;61.97;103068.38;5044541;28;20059;-83
2023/04/08 02:33:23;;;;;;;0.60;0.30;;;;;;;3.76;61.97;103080.81;5045386;28;20107;-84
2023/04/08 02:35:53;;;;;;;1.42;0.20;;;;;;;3.76;61.55;103077.34;5040542;28;20528;-84
2023/04/08 02:38:20;;;;;;;0.73;0.35;;;;;;;3.63;61.75;103052.59;5043289;28;20215;-83
2023/04/08 02:40:50;;;;;;;3.72;0.47;;;;;;;3.73;62.04;103069.41;5044919;28;20045;-80
2023/04/08 02:43:17;;;;;;;1.23;0.32;;;;;;;3.76;62.14;103080.81;5034033;28;20045;-80
2023/04/08 02:45:44;;;;;;;0.47;0.30;;;;;;;3.79;61.87;103085.22;5035743;28;20056;-80
2023/04/08 02:48:11;;;;;;;0.55;0.20;;;;;;;3.74;61.74;103074.66;5033161;28;20068;-81
2023/04/08 02:50:40;;;;;;;0.30;0.30;;;;;;;3.80;62.01;103081.81;5036616;28;20386;-81
2023/04/08 02:53:08;;;;;;;1.80;0.30;;;;;;;3.80;62.02;103085.28;5040921;28;20100;-81
2023/04/08 02:55:35;;;;;;;0.45;0.22;;;;;;;3.80;62.10;103077.53;5044261;28;20049;-80
2023/04/08 02:58:01;;;;;;;0.32;0.20;;;;;;;3.82;62.00;103082.78;5035201;28;20095;-80
2023/04/08 03:00:28;;;;;;;0.38;0.20;;;;;;;3.81;62.01;103084.50;5039621;28;20041;-81
2023/04/08 03:02:55;;;;;;;0.35;0.30;;;;;;;3.80;61.66;103082.69;5049864;28;20088;-81
2023/04/08 03:05:22;;;;;;;0.30;0.20;;;;;;;3.82;61.31;103082.78;5042135;28;20464;-80
2023/04/08 03:07:50;;;;;;;0.47;0.20;;;;;;;3.81;61.67;103083.56;5041021;28;20059;-80
2023/04/08 03:10:17;;;;;;;2.58;0.20;;;;;;;3.80;61.58;103087.88;5038468;28;20052;-81
2023/04/08 03:12:44;;;;;;;1.08;0.25;;;;;;;3.81;61.88;103093.91;5046983;28;20084;-80
2023/04/08 03:15:11;;;;;;;0.35;0.28;;;;;;;3.81;61.64;103091.34;5050561;28;20041;-80
2023/04/08 03:17:38;;;;;;;2.13;0.30;;;;;;;3.80;61.41;103090.44;5047929;28;20049;-80
2023/04/08 03:20:06;;;;;;;0.20;0.20;;;;;;;3.80;61.77;103090.44;5042452;28;20046;-80
2023/04/08 03:22:33;;;;;;;0.73;0.40;;;;;;;3.80;61.57;103082.69;5042447;28;20041;-80
2023/04/08 03:25:01;;;;;;;0.22;0.20;;;;;;;3.81;61.52;103094.84;5037394;28;20049;-80
2023/04/08 03:27:28;;;;;;;0.65;0.20;;;;;;;3.81;61.37;103089.66;5048429;28;20674;-80
2023/04/08 03:29:56;;;;;;;0.50;0.30;;;;;;;3.81;61.38;103088.75;5041456;28;20807;-81
2023/04/08 03:32:23;;;;;;;1.08;0.30;;;;;;;3.74;61.65;103077.25;5035404;28;20460;-81
2023/04/08 03:34:50;;;;;;;0.30;0.30;;;;;;;3.74;60.96;103082.41;5046517;28;20055;-80
2023/04/08 03:37:17;;;;;;;0.50;0.50;;;;;;;3.80;61.36;103087.88;5042837;28;20037;-80
2023/04/08 03:39:44;;;;;;;0.90;0.35;;;;;;;3.80;61.17;103090.44;5046820;28;20049;-80
2023/04/08 03:42:13;;;;;;;0.88;0.22;;;;;;;3.80;61.63;103087.00;5052038;28;20473;-80
2023/04/08 03:44:39;;;;;;;0.45;0.32;;;;;;;3.82;61.24;103091.41;5044930;28;20054;-80
2023/04/08 03:47:06;;;;;;;0.45;0.20;;;;;;;3.81;61.41;103092.25;5048488;28;20049;-80
2023/04/08 03:49:33;;;;;;;2.28;0.25;;;;;;;3.82;61.78;103094.00;5041307;28;20477;-80
2023/04/08 03:52:00;;;;;;;0.75;0.30;;;;;;;3.83;61.83;103097.47;5038696;28;20049;-80
2023/04/08 03:54:27;;;;;;;0.50;0.30;;;;;;;3.82;61.31;103096.59;5038996;28;20104;-80
2023/04/08 03:56:55;;;;;;;1.55;0.20;;;;;;;3.83;61.97;103100.06;5038872;28;20045;-80
2023/04/08 03:59:23;;;;;;;0.70;0.30;;;;;;;3.74;61.64;103085.00;5046599;28;20040;-80
2023/04/08 04:01:52;;;;;;;1.15;0.20;;;;;;;3.80;61.63;103092.16;5043110;28;20058;-80
2023/04/08 04:04:19;;;;;;;0.43;0.20;;;;;;;3.81;61.74;103100.00;5048372;28;20043;-80
2023/04/08 04:06:46;;;;;;;0.38;0.20;;;;;;;3.82;61.76;103101.75;5039318;28;20052;-80
2023/04/08 04:09:14;;;;;;;0.30;0.20;;;;;;;3.81;61.34;103105.16;5053807;28;20041;-81
2023/04/08 04:11:40;;;;;;;0.50;0.30;;;;;;;3.81;61.53;103102.59;5042138;28;20481;-80
2023/04/08 04:14:07;;;;;;;0.50;0.30;;;;;;;3.82;61.54;103106.06;5048513;28;20041;-80
2023/04/08 04:16:35;;;;;;;0.75;0.20;;;;;;;3.81;61.33;103105.16;5043507;28;20045;-81
2023/04/08 04:19:02;;;;;;;0.50;0.47;;;;;;;3.79;61.51;103106.78;5046941;28;20052;-80
2023/04/08 04:21:29;;;;;;;0.85;0.40;;;;;;;3.79;61.66;103106.78;5043089;28;20052;-81
2023/04/08 04:23:56;;;;;;;0.30;0.22;;;;;;;3.79;61.35;103106.78;5045234;28;20504;-80
2023/04/08 04:26:23;;;;;;;0.45;0.25;;;;;;;3.78;61.15;103104.13;5046630;28;20049;-80
2023/04/08 04:28:50;;;;;;;1.40;0.30;;;;;;;3.69;61.44;103090.78;5045327;28;20511;-80
2023/04/08 04:31:20;;;;;;;0.45;0.30;;;;;;;3.77;61.36;103108.41;5037673;28;20042;-81
2023/04/08 04:33:49;;;;;;;0.50;0.30;;;;;;;3.78;61.10;103110.16;5040767;28;20133;-80
2023/04/08 04:36:16;;;;;;;1.38;0.30;;;;;;;3.76;61.28;103106.66;5041330;28;20049;-80
2023/04/08 04:38:43;;;;;;;0.30;0.28;;;;;;;3.76;61.32;103119.56;5036707;28;20065;-80
2023/04/08 04:41:10;;;;;;;1.55;0.30;;;;;;;3.77;60.88;103121.34;5052554;28;20049;-80
2023/04/08 04:43:37;;;;;;;1.48;0.30;;;;;;;3.78;61.09;103117.03;5050085;28;20052;-80
2023/04/08 04:46:07;;;;;;;2.25;0.30;;;;;;;3.79;61.18;103119.72;5041912;28;20044;-80
2023/04/08 04:48:34;;;;;;;1.35;0.22;;;;;;;3.78;61.29;103120.50;5039935;28;20051;-80
2023/04/08 04:51:03;;;;;;;0.52;0.30;;;;;;;3.79;61.02;103117.13;5042337;28;20067;-80
2023/04/08 04:53:30;;;;;;;0.20;0.20;;;;;;;3.78;60.90;103115.34;5048540;28;20146;-81
2023/04/08 04:55:57;;;;;;;0.57;0.30;;;;;;;3.77;61.67;103113.59;5043497;28;20049;-80
2023/04/08 04:58:24;;;;;;;1.00;0.20;;;;;;;3.82;61.24;103116.41;5036748;28;20152;-81
2023/04/08 05:00:51;;;;;;;0.40;0.20;;;;;;;3.73;61.51;103113.34;5039680;28;20107;-80
2023/04/08 05:03:18;;;;;;;0.40;0.20;;;;;;;3.83;61.12;103121.63;5042731;28;20044;-80
2023/04/08 05:05:44;;;;;;;0.70;0.20;;;;;;;3.83;61.35;103128.50;5040154;28;20409;-80
2023/04/08 05:08:13;;;;;;;0.43;0.20;;;;;;;3.85;61.05;103126.88;5047044;28;20041;-80
2023/04/08 05:10:41;;;;;;;0.98;0.30;;;;;;;3.86;61.44;103127.75;5035288;28;20509;-80
2023/04/08 05:13:08;;;;;;;1.77;0.20;;;;;;;3.86;61.76;103135.50;5042340;28;20049;-80
2023/04/08 05:15:34;;;;;;;0.50;0.20;;;;;;;3.87;61.40;103127.84;5038050;28;20485;-80
2023/04/08 05:18:01;;;;;;;0.20;0.10;;;;;;;3.88;61.07;103132.19;5050013;28;20083;-81
2023/04/08 05:20:29;;;;;;;0.93;0.30;;;;;;;3.87;61.44;103130.44;5042841;28;20048;-80
2023/04/08 05:22:56;;;;;;;0.50;0.20;;;;;;;3.90;61.61;103135.75;5044727;28;20053;-80
2023/04/08 05:25:24;;;;;;;0.30;0.30;;;;;;;3.91;61.71;103134.03;5037969;28;20060;-80
2023/04/08 05:27:51;;;;;;;0.30;0.10;;;;;;;3.92;61.49;103138.38;5039030;28;20524;-82
2023/04/08 05:30:18;;;;;;;2.55;0.20;;;;;;;3.93;60.64;103137.59;5037352;28;20050;-80
2023/04/08 05:32:45;;;;;;;0.40;0.20;;;;;;;3.93;61.00;103129.84;5046333;28;20106;-81
2023/04/08 05:35:12;;;;;;;0.30;0.20;;;;;;;3.93;60.78;103130.72;5035633;28;20046;-80
2023/04/08 05:37:39;;;;;;;0.30;0.30;;;;;;;3.97;60.99;103134.31;5037486;28;20055;-80
2023/04/08 05:40:07;;;;;;;0.63;0.20;;;;;;;3.98;60.97;103130.91;5044937;28;20131;-80
2023/04/08 05:42:35;;;;;;;2.25;0.22;;;;;;;4.01;61.23;103138.81;5046173;28;20044;-80
2023/04/08 05:45:02;;;;;;;1.77;0.20;;;;;;;4.03;60.85;103137.19;5034765;28;20041;-80
2023/04/08 05:47:29;;;;;;;0.30;0.20;;;;;;;4.06;60.93;103142.50;5038820;28;20051;-80
2023/04/08 05:49:55;;;;;;;0.63;0.28;;;;;;;4.10;61.29;103144.44;5048399;28;20373;-81
2023/04/08 05:52:22;;;;;;;0.20;0.13;;;;;;;4.11;61.10;103151.34;5040833;28;20041;-81
2023/04/08 05:54:49;;;;;;;2.17;0.30;;;;;;;4.13;60.95;103151.44;5036501;28;20069;-80
2023/04/08 05:57:16;;;;;;;0.52;0.45;;;;;;;4.13;60.79;103143.69;5037700;28;20430;-80
2023/04/08 05:59:44;;;;;;;0.73;0.20;;;;;;;4.18;60.51;103153.41;5041538;28;20049;-81
2023/04/08 06:02:11;;;;;;;0.38;0.28;;;;;;;4.20;60.22;103151.78;5034745;28;20365;-81
2023/04/08 06:04:38;;;;;;;0.35;0.20;;;;;;;4.15;60.49;103142.91;5047891;28;20044;-80
2023/04/08 06:07:07;;;;;;;1.67;0.30;;;;;;;4.26;60.42;103161.53;5040498;28;20053;-80
2023/04/08 06:09:35;;;;;;;0.20;0.20;;;;;;;4.27;59.92;103158.13;5038845;28;20049;-80
2023/04/08 06:12:02;;;;;;;0.95;0.50;;;;;;;4.32;60.27;103166.09;5039457;28;20045;-80
2023/04/08 06:14:29;;;;;;;0.35;0.20;;;;;;;4.35;60.39;103163.63;5042693;28;20056;-81
2023/04/08 06:16:57;;;;;;;1.05;0.20;;;;;;;4.35;60.27;103161.03;5041982;28;20489;-80
2023/04/08 06:19:24;;;;;;;0.50;0.30;;;;;;;4.39;59.69;103162.97;5044679;28;20051;-80
2023/04/08 06:21:51;;;;;;;0.60;0.20;;;;;;;4.40;59.74;103165.63;5039185;28;20052;-78
2023/04/08 06:24:19;;;;;;;0.32;0.20;;;;;;;4.43;60.05;103165.75;5043108;28;20045;-77
2023/04/08 06:26:46;;;;;;;0.55;0.10;;;;;;;4.45;59.72;103169.31;5031566;28;20059;-78
2023/04/08 06:29:13;;;;;;;0.50;0.20;;;;;;;4.47;59.90;103166.81;5039228;28;20049;-78
2023/04/08 06:31:40;;;;;;;0.75;0.20;;;;;;;4.50;59.48;103172.13;5034032;28;20490;-78
2023/04/08 06:34:08;;;;;;;0.20;0.20;;;;;;;4.52;59.47;103170.47;5039644;28;20041;-77
2023/04/08 06:36:35;;;;;;;0.80;0.20;;;;;;;4.54;59.50;103171.41;5035501;28;20045;-77
2023/04/08 06:39:02;;;;;;;0.10;0.10;;;;;;;4.59;59.66;103187.16;5041438;28;20591;-77
2023/04/08 06:41:29;;;;;;;0.47;0.20;;;;;;;4.63;60.04;103187.34;5050577;28;20052;-77
2023/04/08 06:43:56;;;;;;;1.75;0.20;;;;;;;4.67;59.24;103175.47;5042100;28;20056;-77
2023/04/08 06:46:23;;;;;;;0.90;0.20;;;;;;;4.70;59.36;103179.06;5045755;28;20502;-79
2023/04/08 06:48:50;;;;;;;0.43;0.30;;;;;;;4.73;58.75;103184.38;5044049;28;20047;-77
2023/04/08 06:51:18;;;;;;;1.17;0.20;;;;;;;4.76;59.07;103180.16;5046497;28;20051;-77
2023/04/08 06:53:45;;;;;;;0.95;0.20;;;;;;;4.82;58.94;103183.00;5051914;28;20045;-77
2023/04/08 06:56:12;;;;;;;0.30;0.20;;;;;;;4.88;58.53;103185.84;5040624;28;20128;-77
2023/04/08 06:58:39;;;;;;;0.20;0.10;;;;;;;4.93;58.80;103179.19;5045447;28;20055;-77
2023/04/08 07:01:06;;;;;;;1.15;0.20;;;;;;;4.98;58.84;103180.28;5040290;28;20565;-77
2023/04/08 07:03:33;;;;;;;0.88;0.30;;;;;;;5.07;58.66;103178.06;5045315;28;20041;-77
2023/04/08 07:06:00;;;;;;;0.30;0.20;;;;;;;5.13;58.62;103173.16;5045395;28;20045;-76
2023/04/08 07:08:28;;;;;;;0.57;0.20;;;;;;;5.24;58.66;103177.91;5041279;28;20490;-76
2023/04/08 07:10:56;;;;;;;0.95;0.20;;;;;;;5.32;58.70;103177.41;5052247;28;20049;-77
2023/04/08 07:13:23;;;;;;;0.20;0.17;;;;;;;5.44;58.06;103176.13;5046123;28;20048;-77
2023/04/08 07:15:49;;;;;;;0.30;0.20;;;;;;;5.52;57.91;103178.22;5052003;28;20049;-78
2023/04/08 07:18:16;;;;;;;0.30;0.20;;;;;;;5.62;57.69;103176.88;5050221;28;20041;-78
2023/04/08 07:20:43;;;;;;;0.35;0.20;;;;;;;5.71;57.97;103179.84;5055609;28;20386;-79
2023/04/08 07:23:10;;;;;;;3.08;0.30;;;;;;;5.83;57.87;103179.44;5045539;28;20531;-78
2023/04/08 07:25:38;;;;;;;0.57;0.30;;;;;;;5.92;58.11;103177.22;5042006;28;20045;-77
2023/04/08 07:28:05;;;;;;;0.63;0.20;;;;;;;6.03;57.97;103175.97;5041309;28;20537;-76
2023/04/08 07:30:32;;;;;;;0.22;0.15;;;;;;;6.16;57.82;103187.69;5044557;28;20054;-77
2023/04/08 07:32:59;;;;;;;1.15;0.30;;;;;;;6.27;56.35;103181.19;5042820;28;20498;-76
2023/04/08 07:35:26;;;;;;;0.77;0.30;;;;;;;6.36;56.89;103185.84;5040149;28;20052;-76
2023/04/08 07:37:53;;;;;;;0.38;0.20;;;;;;;6.50;56.28;103186.38;5039644;28;20052;-77
2023/04/08 07:40:21;;;;;;;1.75;0.30;;;;;;;6.64;55.63;103187.75;5041506;28;20048;-75
2023/04/08 07:42:50;;;;;;;1.33;0.25;;;;;;;6.79;55.42;103186.53;5040306;28;20087;-76
2023/04/08 07:45:16;;;;;;;1.00;0.30;;;;;;;6.92;54.60;103181.84;5042519;28;20049;-76
2023/04/08 07:47:44;;;;;;;1.63;0.20;;;;;;;7.08;54.96;103183.25;5047227;28;20049;-77
2023/04/08 07:50:11;;;;;;;0.95;0.20;;;;;;;7.20;54.46;103194.09;5040950;28;20041;-77
2023/04/08 07:52:38;;;;;;;0.38;0.38;;;;;;;7.34;54.34;103191.03;5037407;28;20575;-77
2023/04/08 07:55:06;;;;;;;0.15;0.10;;;;;;;7.51;53.98;103191.59;5044213;28;20041;-76
2023/04/08 07:57:33;;;;;;;0.10;0.10;;;;;;;7.64;53.75;103183.38;5038260;28;20049;-76
2023/04/08 08:00:02;;;;;;;0.20;0.20;;;;;;;7.76;52.32;103186.38;5043748;28;20052;-77
2023/04/08 08:02:29;;;;;;;0.55;0.40;;;;;;;7.88;52.95;103184.16;5038465;28;20049;-76
2023/04/08 08:04:56;;;;;;;0.30;0.30;;;;;;;7.98;52.13;103190.53;5041519;28;20076;-77
2023/04/08 08:07:23;;;;;;;0.30;0.20;;;;;;;8.11;52.50;103189.16;5042452;28;20489;-77
2023/04/08 08:09:49;;;;;;;0.40;0.20;;;;;;;8.21;51.75;103195.56;5043076;28;20063;-77
2023/04/08 08:12:16;;;;;;;0.20;0.20;;;;;;;8.28;51.45;103182.78;5041521;28;20045;-78
2023/04/08 08:14:43;;;;;;;0.40;0.20;;;;;;;8.47;51.63;103193.75;5044290;28;20488;-76
2023/04/08 08:17:11;;;;;;;1.65;0.20;;;;;;;8.49;51.36;103174.72;5037286;28;20053;-76
2023/04/08 08:19:38;;;;;;;0.40;0.20;;;;;;;8.69;51.70;103195.25;5036783;28;20045;-78
2023/04/08 08:22:06;;;;;;;2.38;0.30;;;;;;;8.80;51.58;103196.44;5039716;28;20045;-75
2023/04/08 08:24:33;;;;;;;1.30;0.20;;;;;;;8.91;50.86;103202.84;5035473;28;20099;-76
2023/04/08 08:27:01;;;;;;;3.10;0.10;;;;;;;9.01;50.18;103201.34;5035962;28;20053;-75
2023/04/08 08:29:28;;;;;;;0.70;0.20;;;;;;;9.08;50.30;103195.47;5036512;28;20053;-75
2023/04/08 08:31:55;;;;;;;0.30;0.20;;;;;;;9.17;50.43;103203.53;5033764;28;20045;-74
2023/04/08 08:34:23;;;;;;;2.22;0.13;;;;;;;9.19;50.18;103186.19;5036312;28;20042;-77
2023/04/08 08:36:50;;;;;;;2.15;0.20;;;;;;;9.31;49.95;103203.88;5037960;28;20053;-76
2023/04/08 08:39:17;;;;;;;0.35;0.20;;;;;;;9.36;48.50;103196.16;5035852;28;20371;-75
2023/04/08 08:41:44;;;;;;;0.28;0.20;;;;;;;9.31;47.91;103188.25;5034730;28;20050;-76
2023/04/08 08:44:12;;;;;;;0.60;0.20;;;;;;;9.39;48.24;103196.22;5035947;28;20102;-76
2023/04/08 08:46:43;;;;;;;0.25;0.17;;;;;;;9.40;48.04;103198.03;5041463;28;20061;-76
2023/04/08 08:49:10;;;;;;;0.55;0.25;;;;;;;9.39;47.11;103198.84;5035767;28;20048;-77
2023/04/08 08:51:40;;;;;;;0.35;0.20;;;;;;;9.36;47.14;103204.91;5041929;28;20063;-76
2023/04/08 08:54:08;;;;;;;0.25;0.15;;;;;;;9.30;47.57;103193.41;5038878;28;20786;-76
2023/04/08 08:56:35;;;;;;;0.25;0.20;;;;;;;9.32;46.99;103209.97;5036679;28;20049;-75
2023/04/08 08:59:02;;;;;;;1.13;0.30;;;;;;;9.30;46.82;103201.22;5036146;28;20049;-77
2023/04/08 09:01:36;;;;;;;1.98;0.20;;;;;;;9.28;47.07;103201.22;5035002;28;20103;-76
2023/04/08 09:04:15;;;;;;;0.52;0.20;;;;;;;9.28;46.98;103202.91;5038368;28;20044;-76
2023/04/08 09:06:45;;;;;;;0.20;0.20;;;;;;;9.27;47.09;103202.03;5042185;28;20076;-76
2023/04/08 09:09:13;;;;;;;0.40;0.20;;;;;;;9.24;45.78;103192.41;5038112;28;20446;-76
2023/04/08 09:11:42;;;;;;;2.85;0.65;;;;;;;9.22;46.38;103194.09;5036162;28;20060;-76
2023/04/08 09:14:23;;;;;;;1.17;0.25;;;;;;;9.23;47.15;103198.47;5031826;28;20497;-76
2023/04/08 09:16:50;;;;;;;0.65;0.30;;;;;;;9.22;45.72;103188.88;5041692;28;20051;-76
2023/04/08 09:19:17;;;;;;;0.40;0.20;;;;;;;9.24;46.18;103189.78;5035223;28;20052;-76
2023/04/08 09:21:46;;;;;;;1.30;0.22;;;;;;;9.28;46.40;103187.25;5036975;28;20038;-75
2023/04/08 09:24:28;;;;;;;0.30;0.20;;;;;;;9.30;45.64;103181.25;5039851;28;20048;-75
2023/04/08 09:26:55;;;;;;;0.70;0.20;;;;;;;9.32;45.73;103178.69;5035453;28;20051;-76
2023/04/08 09:29:24;;;;;;;0.43;0.20;;;;;;;9.33;45.63;103178.69;5038004;28;20092;-76
2023/04/08 09:31:54;;;;;;;0.80;0.30;;;;;;;9.35;45.79;103184.84;5040553;28;20052;-76
2023/04/08 09:34:22;;;;;;;0.40;0.22;;;;;;;9.37;45.69;103183.16;5035952;28;20059;-75
2023/04/08 09:36:50;;;;;;;1.65;0.20;;;;;;;9.40;45.12;103180.63;5036495;28;20080;-75
2023/04/08 09:39:18;;;;;;;0.50;0.30;;;;;;;9.42;45.20;103172.84;5034762;28;20057;-76
2023/04/08 09:41:47;;;;;;;0.20;0.20;;;;;;;9.44;44.97;103181.59;5034887;28;20413;-75
2023/04/08 09:44:16;;;;;;;0.30;0.20;;;;;;;9.44;44.68;103185.06;5036193;28;20049;-77
2023/04/08 09:46:53;;;;;;;1.38;0.20;;;;;;;9.44;45.40;103185.06;5035176;28;20111;-76
2023/04/08 09:49:26;;;;;;;1.05;0.20;;;;;;;9.48;44.77;103191.28;5032936;28;20162;-76
2023/04/08 09:52:03;;;;;;;0.30;0.20;;;;;;;9.48;44.10;103178.22;5041604;28;20505;-76
2023/04/08 09:54:37;;;;;;;0.35;0.20;;;;;;;9.49;44.59;103179.97;5037030;28;20045;-76
2023/04/08 09:57:10;;;;;;;0.95;0.10;;;;;;;9.51;44.40;103186.13;5034452;28;20061;-78
2023/04/08 09:59:40;;;;;;;0.45;0.10;;;;;;;9.52;45.10;103184.41;5042133;28;20056;-77
2023/04/08 10:02:11;;;;;;;0.30;0.20;;;;;;;9.55;43.86;103181.84;5042166;28;20045;-76
2023/04/08 10:04:41;;;;;;;1.83;0.20;;;;;;;9.55;43.33;103177.50;5035195;28;20498;-81
2023/04/08 10:07:10;;;;;;;0.32;0.20;;;;;;;9.56;44.39;103184.53;5042484;28;20044;-80
2023/04/08 10:09:40;;;;;;;0.28;0.17;;;;;;;9.45;44.33;103165.13;5046357;28;20041;-80
2023/04/08 10:12:07;;;;;;;1.23;0.20;;;;;;;9.57;43.39;103186.28;5036841;28;20048;-81
2023/04/08 10:14:34;;;;;;;0.70;0.20;;;;;;;9.60;43.25;103180.25;5042858;28;20041;-81
2023/04/08 10:17:25;;;;;;;0.52;0.30;;;;;;;9.60;44.35;103185.47;5044616;28;20497;-82
2023/04/08 10:19:52;;;;;;;0.40;0.20;;;;;;;9.60;42.44;103182.84;5043720;28;20102;-82
2023/04/08 10:22:48;;;;;;;0.40;0.20;;;;;;;9.59;43.15;103187.19;5035828;28;20056;-82
2023/04/08 10:25:32;;;;;;;1.45;0.30;;;;;;;9.59;43.19;103179.38;5034199;28;20547;-82
2023/04/08 10:27:59;;;;;;;0.45;0.22;;;;;;;9.60;42.88;103175.03;5041784;28;20137;-83
2023/04/08 10:30:42;;;;;;;0.80;0.30;;;;;;;9.58;43.35;103188.03;5036739;28;20049;-82
2023/04/08 10:33:15;;;;;;;0.85;0.20;;;;;;;9.59;42.41;103189.81;5034951;28;20041;-80
2023/04/08 10:35:45;;;;;;;0.50;0.15;;;;;;;9.56;42.29;103176.69;5040530;28;20382;-82
2023/04/08 10:38:15;;;;;;;0.52;0.10;;;;;;;9.56;42.61;103194.97;5039139;28;20049;-81
2023/04/08 10:40:43;;;;;;;1.90;0.20;;;;;;;9.51;41.92;103174.81;5033556;28;20075;-78
2023/04/08 10:43:10;;;;;;;0.30;0.20;;;;;;;9.49;42.03;103172.16;5031541;28;20047;-78
2023/04/08 10:45:38;;;;;;;0.50;0.15;;;;;;;9.47;41.91;103173.84;5032212;28;20045;-78
2023/04/08 10:48:16;;;;;;;0.57;0.20;;;;;;;9.47;41.77;103168.63;5035333;28;20975;-78
2023/04/08 10:50:44;;;;;;;1.67;0.20;;;;;;;9.44;41.88;103166.81;5036614;28;20049;-78
2023/04/08 10:53:11;;;;;;;0.40;0.20;;;;;;;9.42;41.96;103167.63;5044301;28;20045;-79
2023/04/08 10:55:39;;;;;;;0.28;0.20;;;;;;;9.40;42.03;103167.59;5035704;28;20071;-78
2023/04/08 10:58:07;;;;;;;1.58;0.20;;;;;;;9.40;41.41;103169.31;5036224;28;20041;-78
2023/04/08 11:00:36;;;;;;;1.25;0.20;;;;;;;9.39;41.58;103160.63;5033524;28;20042;-78
2023/04/08 11:03:04;;;;;;;0.30;0.20;;;;;;;9.38;41.55;103157.97;5037072;28;20047;-78
2023/04/08 11:05:31;;;;;;;0.20;0.10;;;;;;;9.30;41.38;103149.06;5037759;28;20053;-77
2023/04/08 11:07:58;;;;;;;0.68;0.28;;;;;;;9.31;41.08;103161.28;5035789;28;20049;-77
2023/04/08 11:10:25;;;;;;;0.30;0.20;;;;;;;9.28;40.91;103156.88;5037630;28;20045;-79
2023/04/08 11:12:54;;;;;;;0.63;0.20;;;;;;;9.28;40.92;103155.97;5039515;28;20052;-77
2023/04/08 11:15:21;;;;;;;0.10;0.10;;;;;;;9.28;40.09;103155.97;5029704;28;20824;-78
2023/04/08 11:17:49;;;;;;;0.80;0.10;;;;;;;9.26;39.28;103155.94;5036738;28;20054;-79
2023/04/08 11:20:17;;;;;;;0.47;0.20;;;;;;;9.24;39.50;103158.50;5039301;28;20595;-78
2023/04/08 11:22:44;;;;;;;0.60;0.20;;;;;;;9.23;39.87;103146.31;5044232;28;20045;-78
2023/04/08 11:25:11;;;;;;;0.32;0.20;;;;;;;9.22;39.89;103147.16;5039949;28;20050;-77
2023/04/08 11:27:39;;;;;;;0.17;0.10;;;;;;;9.24;40.10;103152.41;5052046;28;20055;-77
2023/04/08 11:30:10;;;;;;;0.50;0.20;;;;;;;9.22;38.88;103148.84;5044543;28;20094;-76
2023/04/08 11:32:38;;;;;;;0.20;0.10;;;;;;;9.27;38.97;103149.00;5041143;28;20085;-79
2023/04/08 11:35:06;;;;;;;0.35;0.13;;;;;;;9.23;38.98;103154.13;5035716;28;20524;-78
2023/04/08 11:37:39;;;;;;;0.40;0.10;;;;;;;9.26;38.39;103150.72;5039040;28;20532;-76
2023/04/08 11:40:10;;;;;;;0.15;0.10;;;;;;;9.24;38.47;103153.28;5039386;28;20049;-79